sensor_id;sensor_type;location;lat;lon;timestamp;P1;durP1;ratioP1;P2;durP2;ratioP2
10571;SDS011;5334;48.928;12.704;2023-05-15T00:00:03;17.50;;;16.80;;
10571;SDS011;5334;48.928;12.704;2023-05-15T00:02:30;19.03;;;18.23;;
10571;SDS011;5334;48.928;12.704;2023-05-15T00:04:58;19.40;;;18.60;;
10571;SDS011;5334;48.928;12.704;2023-05-15T00:07:24;17.73;;;17.03;;
10571;SDS011;5334;48.928;12.704;2023-05-15T00:09:50;19.00;;;18.20;;
10571;SDS011;5334;48.928;12.704;2023-05-15T00:12:15;15.43;;;14.83;;
10571;SDS011;5334;48.928;12.704;2023-05-15T00:14:41;14.43;;;13.83;;
10571;SDS011;5334;48.928;12.704;2023-05-15T00:17:07;14.50;;;13.90;;
10571;SDS011;5334;48.928;12.704;2023-05-15T00:19:33;14.53;;;13.93;;
10571;SDS011;5334;48.928;12.704;2023-05-15T00:21:59;16.87;;;16.17;;
10571;SDS011;5334;48.928;12.704;2023-05-15T00:24:25;14.23;;;13.63;;
10571;SDS011;5334;48.928;12.704;2023-05-15T00:26:51;15.87;;;15.23;;
10571;SDS011;5334;48.928;12.704;2023-05-15T00:29:16;15.77;;;15.13;;
10571;SDS011;5334;48.928;12.704;2023-05-15T00:31:42;15.13;;;14.53;;
10571;SDS011;5334;48.928;12.704;2023-05-15T00:34:08;16.83;;;16.13;;
10571;SDS011;5334;48.928;12.704;2023-05-15T00:36:33;15.93;;;15.27;;
10571;SDS011;5334;48.928;12.704;2023-05-15T00:38:59;15.63;;;15.03;;
10571;SDS011;5334;48.928;12.704;2023-05-15T00:41:25;13.43;;;12.93;;
10571;SDS011;5334;48.928;12.704;2023-05-15T00:43:52;17.37;;;16.67;;
10571;SDS011;5334;48.928;12.704;2023-05-15T00:46:20;17.23;;;16.53;;
10571;SDS011;5334;48.928;12.704;2023-05-15T00:48:47;17.40;;;16.70;;
10571;SDS011;5334;48.928;12.704;2023-05-15T00:51:15;16.47;;;15.77;;
10571;SDS011;5334;48.928;12.704;2023-05-15T00:53:41;16.37;;;15.67;;
10571;SDS011;5334;48.928;12.704;2023-05-15T00:56:07;15.20;;;14.60;;
10571;SDS011;5334;48.928;12.704;2023-05-15T00:58:34;20.03;;;19.23;;
10571;SDS011;5334;48.928;12.704;2023-05-15T01:01:02;16.70;;;16.00;;
10571;SDS011;5334;48.928;12.704;2023-05-15T01:03:27;16.70;;;16.00;;
10571;SDS011;5334;48.928;12.704;2023-05-15T01:05:53;17.13;;;16.43;;
10571;SDS011;5334;48.928;12.704;2023-05-15T01:08:20;17.03;;;16.33;;
10571;SDS011;5334;48.928;12.704;2023-05-15T01:10:51;19.37;;;18.57;;
10571;SDS011;5334;48.928;12.704;2023-05-15T01:13:20;16.20;;;15.50;;
10571;SDS011;5334;48.928;12.704;2023-05-15T01:15:47;15.30;;;14.70;;
10571;SDS011;5334;48.928;12.704;2023-05-15T01:18:14;17.20;;;16.50;;
10571;SDS011;5334;48.928;12.704;2023-05-15T01:21:00;16.80;;;16.10;;
10571;SDS011;5334;48.928;12.704;2023-05-15T01:26:31;24.03;;;22.87;;
10571;SDS011;5334;48.928;12.704;2023-05-15T01:31:37;18.87;;;18.07;;
10571;SDS011;5334;48.928;12.704;2023-05-15T01:34:06;17.13;;;16.43;;
10571;SDS011;5334;48.928;12.704;2023-05-15T01:36:37;18.03;;;17.30;;
10571;SDS011;5334;48.928;12.704;2023-05-15T01:39:05;16.67;;;15.97;;
10571;SDS011;5334;48.928;12.704;2023-05-15T01:41:45;17.87;;;17.17;;
10571;SDS011;5334;48.928;12.704;2023-05-15T01:44:21;16.77;;;16.07;;
10571;SDS011;5334;48.928;12.704;2023-05-15T01:46:58;18.83;;;18.03;;
10571;SDS011;5334;48.928;12.704;2023-05-15T01:49:30;19.57;;;18.77;;
10571;SDS011;5334;48.928;12.704;2023-05-15T01:52:03;19.23;;;18.43;;
10571;SDS011;5334;48.928;12.704;2023-05-15T01:54:39;23.73;;;22.73;;
10571;SDS011;5334;48.928;12.704;2023-05-15T01:57:06;23.37;;;22.37;;
10571;SDS011;5334;48.928;12.704;2023-05-15T01:59:33;22.03;;;21.13;;
10571;SDS011;5334;48.928;12.704;2023-05-15T02:02:00;22.77;;;21.83;;
10571;SDS011;5334;48.928;12.704;2023-05-15T02:04:28;18.00;;;17.30;;
10571;SDS011;5334;48.928;12.704;2023-05-15T02:06:54;19.73;;;18.93;;
10571;SDS011;5334;48.928;12.704;2023-05-15T02:09:21;15.80;;;15.17;;
10571;SDS011;5334;48.928;12.704;2023-05-15T02:11:47;17.03;;;16.33;;
10571;SDS011;5334;48.928;12.704;2023-05-15T02:14:14;14.97;;;14.37;;
10571;SDS011;5334;48.928;12.704;2023-05-15T02:16:41;17.50;;;16.80;;
10571;SDS011;5334;48.928;12.704;2023-05-15T02:19:07;16.20;;;15.50;;
10571;SDS011;5334;48.928;12.704;2023-05-15T02:21:33;16.20;;;15.50;;
10571;SDS011;5334;48.928;12.704;2023-05-15T02:23:59;17.57;;;16.87;;
10571;SDS011;5334;48.928;12.704;2023-05-15T02:26:29;16.83;;;16.13;;
10571;SDS011;5334;48.928;12.704;2023-05-15T02:29:08;18.80;;;18.00;;
10571;SDS011;5334;48.928;12.704;2023-05-15T02:37:34;16.93;;;16.23;;
10571;SDS011;5334;48.928;12.704;2023-05-15T02:40:01;13.67;;;13.13;;
10571;SDS011;5334;48.928;12.704;2023-05-15T02:42:31;14.80;;;14.20;;
10571;SDS011;5334;48.928;12.704;2023-05-15T02:44:57;15.93;;;15.27;;
10571;SDS011;5334;48.928;12.704;2023-05-15T02:47:25;16.00;;;15.33;;
10571;SDS011;5334;48.928;12.704;2023-05-15T02:49:52;14.03;;;13.43;;
10571;SDS011;5334;48.928;12.704;2023-05-15T02:52:19;15.23;;;14.63;;
10571;SDS011;5334;48.928;12.704;2023-05-15T02:54:46;16.10;;;15.43;;
10571;SDS011;5334;48.928;12.704;2023-05-15T02:57:12;17.47;;;16.77;;
10571;SDS011;5334;48.928;12.704;2023-05-15T02:59:37;13.27;;;12.77;;
10571;SDS011;5334;48.928;12.704;2023-05-15T03:02:03;18.13;;;17.40;;
10571;SDS011;5334;48.928;12.704;2023-05-15T03:04:29;16.17;;;15.47;;
10571;SDS011;5334;48.928;12.704;2023-05-15T03:06:55;15.53;;;14.93;;
10571;SDS011;5334;48.928;12.704;2023-05-15T03:09:21;14.53;;;13.93;;
10571;SDS011;5334;48.928;12.704;2023-05-15T03:11:46;17.47;;;16.77;;
10571;SDS011;5334;48.928;12.704;2023-05-15T03:14:12;17.00;;;16.30;;
10571;SDS011;5334;48.928;12.704;2023-05-15T03:16:39;16.63;;;15.93;;
10571;SDS011;5334;48.928;12.704;2023-05-15T03:19:05;16.57;;;15.87;;
10571;SDS011;5334;48.928;12.704;2023-05-15T03:21:30;17.73;;;17.03;;
10571;SDS011;5334;48.928;12.704;2023-05-15T03:23:56;16.93;;;16.23;;
10571;SDS011;5334;48.928;12.704;2023-05-15T03:26:22;17.43;;;16.73;;
10571;SDS011;5334;48.928;12.704;2023-05-15T03:28:48;22.63;;;21.70;;
10571;SDS011;5334;48.928;12.704;2023-05-15T03:31:13;25.63;;;24.53;;
10571;SDS011;5334;48.928;12.704;2023-05-15T03:33:39;25.53;;;24.43;;
10571;SDS011;5334;48.928;12.704;2023-05-15T03:36:05;29.67;;;28.40;;
10571;SDS011;5334;48.928;12.704;2023-05-15T03:38:31;26.50;;;25.40;;
10571;SDS011;5334;48.928;12.704;2023-05-15T03:40:57;22.13;;;21.23;;
10571;SDS011;5334;48.928;12.704;2023-05-15T03:43:22;17.87;;;17.17;;
10571;SDS011;5334;48.928;12.704;2023-05-15T03:45:48;19.07;;;18.27;;
10571;SDS011;5334;48.928;12.704;2023-05-15T03:48:14;22.37;;;21.47;;
10571;SDS011;5334;48.928;12.704;2023-05-15T03:50:40;19.63;;;18.83;;
10571;SDS011;5334;48.928;12.704;2023-05-15T03:53:07;19.27;;;18.47;;
10571;SDS011;5334;48.928;12.704;2023-05-15T03:55:34;21.03;;;20.13;;
10571;SDS011;5334;48.928;12.704;2023-05-15T03:57:59;24.03;;;23.03;;
10571;SDS011;5334;48.928;12.704;2023-05-15T04:00:25;18.70;;;17.90;;
10571;SDS011;5334;48.928;12.704;2023-05-15T04:02:51;20.23;;;19.43;;
10571;SDS011;5334;48.928;12.704;2023-05-15T04:05:17;20.70;;;19.83;;
10571;SDS011;5334;48.928;12.704;2023-05-15T04:07:43;20.93;;;20.03;;
10571;SDS011;5334;48.928;12.704;2023-05-15T04:10:09;21.00;;;20.10;;
10571;SDS011;5334;48.928;12.704;2023-05-15T04:12:35;26.30;;;25.20;;
10571;SDS011;5334;48.928;12.704;2023-05-15T04:15:20;25.73;;;24.63;;
10571;SDS011;5334;48.928;12.704;2023-05-15T04:17:48;19.67;;;18.87;;
10571;SDS011;5334;48.928;12.704;2023-05-15T04:20:15;20.87;;;19.97;;
10571;SDS011;5334;48.928;12.704;2023-05-15T04:22:42;18.80;;;18.00;;
10571;SDS011;5334;48.928;12.704;2023-05-15T04:25:09;19.43;;;18.63;;
10571;SDS011;5334;48.928;12.704;2023-05-15T04:27:36;17.70;;;17.00;;
10571;SDS011;5334;48.928;12.704;2023-05-15T04:30:02;15.57;;;14.97;;
10571;SDS011;5334;48.928;12.704;2023-05-15T04:32:29;14.10;;;13.50;;
10571;SDS011;5334;48.928;12.704;2023-05-15T04:34:55;16.10;;;15.40;;
10571;SDS011;5334;48.928;12.704;2023-05-15T04:37:21;16.83;;;16.13;;
10571;SDS011;5334;48.928;12.704;2023-05-15T04:39:47;17.97;;;17.17;;
10571;SDS011;5334;48.928;12.704;2023-05-15T04:42:12;16.90;;;16.20;;
10571;SDS011;5334;48.928;12.704;2023-05-15T04:44:38;15.13;;;14.53;;
10571;SDS011;5334;48.928;12.704;2023-05-15T04:47:04;20.07;;;19.27;;
10571;SDS011;5334;48.928;12.704;2023-05-15T04:49:29;18.77;;;17.97;;
10571;SDS011;5334;48.928;12.704;2023-05-15T04:51:55;15.83;;;15.20;;
10571;SDS011;5334;48.928;12.704;2023-05-15T04:54:20;15.10;;;14.50;;
10571;SDS011;5334;48.928;12.704;2023-05-15T04:56:46;16.60;;;15.90;;
10571;SDS011;5334;48.928;12.704;2023-05-15T04:59:12;15.00;;;14.40;;
10571;SDS011;5334;48.928;12.704;2023-05-15T05:01:38;17.23;;;16.53;;
10571;SDS011;5334;48.928;12.704;2023-05-15T05:04:03;15.77;;;15.10;;
10571;SDS011;5334;48.928;12.704;2023-05-15T05:06:29;18.73;;;17.93;;
10571;SDS011;5334;48.928;12.704;2023-05-15T05:08:55;19.00;;;18.20;;
10571;SDS011;5334;48.928;12.704;2023-05-15T05:11:21;15.83;;;15.20;;
10571;SDS011;5334;48.928;12.704;2023-05-15T05:13:47;20.50;;;19.63;;
10571;SDS011;5334;48.928;12.704;2023-05-15T05:16:13;18.73;;;17.93;;
10571;SDS011;5334;48.928;12.704;2023-05-15T05:18:38;20.03;;;19.20;;
10571;SDS011;5334;48.928;12.704;2023-05-15T05:21:04;22.60;;;21.67;;
10571;SDS011;5334;48.928;12.704;2023-05-15T05:23:30;18.60;;;17.80;;
10571;SDS011;5334;48.928;12.704;2023-05-15T05:25:56;21.60;;;20.70;;
10571;SDS011;5334;48.928;12.704;2023-05-15T05:28:21;21.00;;;20.10;;
10571;SDS011;5334;48.928;12.704;2023-05-15T05:30:47;19.73;;;18.93;;
10571;SDS011;5334;48.928;12.704;2023-05-15T05:33:13;20.60;;;19.70;;
10571;SDS011;5334;48.928;12.704;2023-05-15T05:35:39;18.73;;;17.93;;
10571;SDS011;5334;48.928;12.704;2023-05-15T05:38:05;17.63;;;16.93;;
10571;SDS011;5334;48.928;12.704;2023-05-15T05:40:31;17.33;;;16.63;;
10571;SDS011;5334;48.928;12.704;2023-05-15T05:43:00;18.47;;;17.67;;
10571;SDS011;5334;48.928;12.704;2023-05-15T05:45:26;17.57;;;16.87;;
10571;SDS011;5334;48.928;12.704;2023-05-15T05:47:55;16.90;;;16.20;;
10571;SDS011;5334;48.928;12.704;2023-05-15T05:50:21;17.47;;;16.77;;
10571;SDS011;5334;48.928;12.704;2023-05-15T05:52:48;16.93;;;16.23;;
10571;SDS011;5334;48.928;12.704;2023-05-15T05:55:13;21.20;;;20.30;;
10571;SDS011;5334;48.928;12.704;2023-05-15T05:57:39;17.40;;;16.70;;
10571;SDS011;5334;48.928;12.704;2023-05-15T06:00:07;18.07;;;17.30;;
10571;SDS011;5334;48.928;12.704;2023-05-15T06:02:34;19.40;;;18.60;;
10571;SDS011;5334;48.928;12.704;2023-05-15T06:05:01;19.30;;;18.50;;
10571;SDS011;5334;48.928;12.704;2023-05-15T06:07:26;17.53;;;16.83;;
10571;SDS011;5334;48.928;12.704;2023-05-15T06:09:52;16.90;;;16.20;;
10571;SDS011;5334;48.928;12.704;2023-05-15T06:12:18;16.33;;;15.63;;
10571;SDS011;5334;48.928;12.704;2023-05-15T06:14:43;18.77;;;17.97;;
10571;SDS011;5334;48.928;12.704;2023-05-15T06:17:10;17.67;;;16.97;;
10571;SDS011;5334;48.928;12.704;2023-05-15T06:19:36;18.63;;;17.83;;
10571;SDS011;5334;48.928;12.704;2023-05-15T06:22:01;20.30;;;19.43;;
10571;SDS011;5334;48.928;12.704;2023-05-15T06:24:27;18.47;;;17.67;;
10571;SDS011;5334;48.928;12.704;2023-05-15T06:26:53;20.17;;;19.33;;
10571;SDS011;5334;48.928;12.704;2023-05-15T06:29:19;16.30;;;15.60;;
10571;SDS011;5334;48.928;12.704;2023-05-15T06:31:45;16.23;;;15.57;;
10571;SDS011;5334;48.928;12.704;2023-05-15T06:34:10;19.60;;;18.80;;
10571;SDS011;5334;48.928;12.704;2023-05-15T06:36:36;18.80;;;18.00;;
10571;SDS011;5334;48.928;12.704;2023-05-15T06:39:02;17.63;;;16.93;;
10571;SDS011;5334;48.928;12.704;2023-05-15T06:41:27;17.07;;;16.37;;
10571;SDS011;5334;48.928;12.704;2023-05-15T06:43:53;18.23;;;17.47;;
10571;SDS011;5334;48.928;12.704;2023-05-15T06:46:19;18.60;;;17.80;;
10571;SDS011;5334;48.928;12.704;2023-05-15T06:48:45;18.80;;;18.00;;
10571;SDS011;5334;48.928;12.704;2023-05-15T06:51:11;21.87;;;20.97;;
10571;SDS011;5334;48.928;12.704;2023-05-15T06:53:37;19.23;;;18.43;;
10571;SDS011;5334;48.928;12.704;2023-05-15T06:56:03;21.63;;;20.73;;
10571;SDS011;5334;48.928;12.704;2023-05-15T06:58:28;21.63;;;20.73;;
10571;SDS011;5334;48.928;12.704;2023-05-15T07:00:54;17.33;;;16.63;;
10571;SDS011;5334;48.928;12.704;2023-05-15T07:03:20;18.17;;;17.40;;
10571;SDS011;5334;48.928;12.704;2023-05-15T07:05:45;21.93;;;21.03;;
10571;SDS011;5334;48.928;12.704;2023-05-15T07:08:11;23.70;;;22.70;;
10571;SDS011;5334;48.928;12.704;2023-05-15T07:10:37;20.87;;;19.97;;
10571;SDS011;5334;48.928;12.704;2023-05-15T07:13:02;20.67;;;19.77;;
10571;SDS011;5334;48.928;12.704;2023-05-15T07:15:28;23.80;;;22.80;;
10571;SDS011;5334;48.928;12.704;2023-05-15T07:17:54;23.93;;;22.93;;
10571;SDS011;5334;48.928;12.704;2023-05-15T07:20:19;20.77;;;19.87;;
10571;SDS011;5334;48.928;12.704;2023-05-15T07:22:45;18.47;;;17.67;;
10571;SDS011;5334;48.928;12.704;2023-05-15T07:25:10;17.13;;;16.43;;
10571;SDS011;5334;48.928;12.704;2023-05-15T07:27:36;17.70;;;17.00;;
10571;SDS011;5334;48.928;12.704;2023-05-15T07:30:02;21.83;;;20.93;;
10571;SDS011;5334;48.928;12.704;2023-05-15T07:32:28;17.60;;;16.90;;
10571;SDS011;5334;48.928;12.704;2023-05-15T07:34:54;19.23;;;18.43;;
10571;SDS011;5334;48.928;12.704;2023-05-15T07:37:20;16.57;;;15.87;;
10571;SDS011;5334;48.928;12.704;2023-05-15T07:39:47;19.37;;;18.57;;
10571;SDS011;5334;48.928;12.704;2023-05-15T07:42:13;18.20;;;17.47;;
10571;SDS011;5334;48.928;12.704;2023-05-15T07:44:38;19.70;;;18.90;;
10571;SDS011;5334;48.928;12.704;2023-05-15T07:47:04;19.37;;;18.57;;
10571;SDS011;5334;48.928;12.704;2023-05-15T07:49:30;18.70;;;17.90;;
10571;SDS011;5334;48.928;12.704;2023-05-15T07:51:55;23.37;;;22.37;;
10571;SDS011;5334;48.928;12.704;2023-05-15T07:54:21;21.37;;;20.47;;
10571;SDS011;5334;48.928;12.704;2023-05-15T07:56:47;22.00;;;21.10;;
10571;SDS011;5334;48.928;12.704;2023-05-15T07:59:12;16.03;;;15.33;;
10571;SDS011;5334;48.928;12.704;2023-05-15T08:01:38;19.37;;;18.57;;
10571;SDS011;5334;48.928;12.704;2023-05-15T08:04:05;17.20;;;16.50;;
10571;SDS011;5334;48.928;12.704;2023-05-15T08:06:32;15.43;;;14.80;;
10571;SDS011;5334;48.928;12.704;2023-05-15T08:08:59;17.33;;;16.63;;
10571;SDS011;5334;48.928;12.704;2023-05-15T08:11:24;20.27;;;19.40;;
10571;SDS011;5334;48.928;12.704;2023-05-15T08:13:50;25.13;;;24.03;;
10571;SDS011;5334;48.928;12.704;2023-05-15T08:16:17;23.13;;;22.13;;
10571;SDS011;5334;48.928;12.704;2023-05-15T08:18:42;20.90;;;20.00;;
10571;SDS011;5334;48.928;12.704;2023-05-15T08:21:08;19.87;;;19.03;;
10571;SDS011;5334;48.928;12.704;2023-05-15T08:23:35;17.17;;;16.47;;
10571;SDS011;5334;48.928;12.704;2023-05-15T08:26:00;18.37;;;17.57;;
10571;SDS011;5334;48.928;12.704;2023-05-15T08:28:26;17.33;;;16.63;;
10571;SDS011;5334;48.928;12.704;2023-05-15T08:30:52;25.43;;;24.33;;
10571;SDS011;5334;48.928;12.704;2023-05-15T08:33:18;25.50;;;24.40;;
10571;SDS011;5334;48.928;12.704;2023-05-15T08:35:43;24.97;;;23.90;;
10571;SDS011;5334;48.928;12.704;2023-05-15T08:38:09;24.13;;;23.13;;
10571;SDS011;5334;48.928;12.704;2023-05-15T08:40:35;17.47;;;16.77;;
10571;SDS011;5334;48.928;12.704;2023-05-15T08:43:08;23.23;;;22.23;;
10571;SDS011;5334;48.928;12.704;2023-05-15T08:45:40;16.10;;;15.43;;
10571;SDS011;5334;48.928;12.704;2023-05-15T08:48:15;19.60;;;18.80;;
10571;SDS011;5334;48.928;12.704;2023-05-15T08:50:43;19.07;;;18.27;;
10571;SDS011;5334;48.928;12.704;2023-05-15T08:53:10;16.47;;;15.77;;
10571;SDS011;5334;48.928;12.704;2023-05-15T08:55:37;17.00;;;16.30;;
10571;SDS011;5334;48.928;12.704;2023-05-15T08:58:03;17.77;;;17.07;;
10571;SDS011;5334;48.928;12.704;2023-05-15T09:00:29;17.57;;;16.87;;
10571;SDS011;5334;48.928;12.704;2023-05-15T09:02:57;21.23;;;20.33;;
10571;SDS011;5334;48.928;12.704;2023-05-15T09:05:25;17.67;;;16.97;;
10571;SDS011;5334;48.928;12.704;2023-05-15T09:07:54;16.27;;;15.57;;
10571;SDS011;5334;48.928;12.704;2023-05-15T09:10:23;15.00;;;14.40;;
10571;SDS011;5334;48.928;12.704;2023-05-15T09:12:49;23.03;;;22.03;;
10571;SDS011;5334;48.928;12.704;2023-05-15T09:15:17;21.50;;;20.60;;
10571;SDS011;5334;48.928;12.704;2023-05-15T09:17:46;21.07;;;20.17;;
10571;SDS011;5334;48.928;12.704;2023-05-15T09:22:58;18.63;;;17.83;;
10571;SDS011;5334;48.928;12.704;2023-05-15T09:28:04;18.27;;;17.50;;
10571;SDS011;5334;48.928;12.704;2023-05-15T09:30:31;17.63;;;16.93;;
10571;SDS011;5334;48.928;12.704;2023-05-15T09:32:59;17.77;;;17.07;;
10571;SDS011;5334;48.928;12.704;2023-05-15T09:35:28;19.37;;;18.57;;
10571;SDS011;5334;48.928;12.704;2023-05-15T09:37:59;16.20;;;15.50;;
10571;SDS011;5334;48.928;12.704;2023-05-15T09:40:29;15.27;;;14.67;;
10571;SDS011;5334;48.928;12.704;2023-05-15T09:42:55;16.03;;;15.37;;
10571;SDS011;5334;48.928;12.704;2023-05-15T09:45:22;13.57;;;12.97;;
10571;SDS011;5334;48.928;12.704;2023-05-15T09:47:50;19.00;;;18.20;;
10571;SDS011;5334;48.928;12.704;2023-05-15T09:50:21;14.73;;;14.13;;
10571;SDS011;5334;48.928;12.704;2023-05-15T09:52:48;14.73;;;14.03;;
10571;SDS011;5334;48.928;12.704;2023-05-15T09:55:15;15.27;;;14.67;;
10571;SDS011;5334;48.928;12.704;2023-05-15T09:57:44;15.77;;;15.17;;
10571;SDS011;5334;48.928;12.704;2023-05-15T10:00:29;14.93;;;14.33;;
10571;SDS011;5334;48.928;12.704;2023-05-15T10:02:56;14.97;;;14.37;;
10571;SDS011;5334;48.928;12.704;2023-05-15T10:05:27;13.37;;;12.87;;
10571;SDS011;5334;48.928;12.704;2023-05-15T10:07:54;15.03;;;14.43;;
10571;SDS011;5334;48.928;12.704;2023-05-15T10:10:21;15.63;;;15.03;;
10571;SDS011;5334;48.928;12.704;2023-05-15T10:12:48;17.43;;;16.73;;
10571;SDS011;5334;48.928;12.704;2023-05-15T10:15:15;16.90;;;16.20;;
10571;SDS011;5334;48.928;12.704;2023-05-15T10:17:42;14.90;;;14.30;;
10571;SDS011;5334;48.928;12.704;2023-05-15T10:20:08;14.90;;;14.30;;
10571;SDS011;5334;48.928;12.704;2023-05-15T10:22:35;13.33;;;12.83;;
10571;SDS011;5334;48.928;12.704;2023-05-15T10:25:07;16.80;;;16.10;;
10571;SDS011;5334;48.928;12.704;2023-05-15T10:27:37;19.00;;;18.17;;
10571;SDS011;5334;48.928;12.704;2023-05-15T10:30:06;14.83;;;14.23;;
10571;SDS011;5334;48.928;12.704;2023-05-15T10:32:33;11.90;;;11.40;;
10571;SDS011;5334;48.928;12.704;2023-05-15T10:35:00;16.63;;;15.93;;
10571;SDS011;5334;48.928;12.704;2023-05-15T10:37:27;13.07;;;12.57;;
10571;SDS011;5334;48.928;12.704;2023-05-15T10:39:54;17.30;;;16.60;;
10571;SDS011;5334;48.928;12.704;2023-05-15T10:42:21;16.53;;;15.83;;
10571;SDS011;5334;48.928;12.704;2023-05-15T10:44:50;16.57;;;15.87;;
10571;SDS011;5334;48.928;12.704;2023-05-15T10:47:18;14.93;;;14.23;;
10571;SDS011;5334;48.928;12.704;2023-05-15T10:49:44;16.33;;;15.53;;
10571;SDS011;5334;48.928;12.704;2023-05-15T10:52:10;16.63;;;15.93;;
10571;SDS011;5334;48.928;12.704;2023-05-15T10:54:36;15.87;;;15.20;;
10571;SDS011;5334;48.928;12.704;2023-05-15T10:57:01;14.83;;;14.23;;
10571;SDS011;5334;48.928;12.704;2023-05-15T10:59:31;16.53;;;15.83;;
10571;SDS011;5334;48.928;12.704;2023-05-15T11:02:17;12.83;;;12.33;;
10571;SDS011;5334;48.928;12.704;2023-05-15T11:04:43;13.27;;;12.77;;
10571;SDS011;5334;48.928;12.704;2023-05-15T11:07:12;13.97;;;13.37;;
10571;SDS011;5334;48.928;12.704;2023-05-15T11:09:39;17.60;;;16.87;;
10571;SDS011;5334;48.928;12.704;2023-05-15T11:12:09;15.33;;;14.73;;
10571;SDS011;5334;48.928;12.704;2023-05-15T11:14:42;13.70;;;13.13;;
10571;SDS011;5334;48.928;12.704;2023-05-15T11:17:11;15.83;;;15.13;;
10571;SDS011;5334;48.928;12.704;2023-05-15T11:22:28;15.23;;;14.63;;
10571;SDS011;5334;48.928;12.704;2023-05-15T11:27:25;16.97;;;16.27;;
10571;SDS011;5334;48.928;12.704;2023-05-15T11:32:41;16.10;;;15.40;;
10571;SDS011;5334;48.928;12.704;2023-05-15T11:35:26;17.37;;;16.67;;
10571;SDS011;5334;48.928;12.704;2023-05-15T11:38:36;18.43;;;17.63;;
10571;SDS011;5334;48.928;12.704;2023-05-15T11:40:49;18.87;;;18.07;;
10571;SDS011;5334;48.928;12.704;2023-05-15T11:45:50;17.63;;;16.73;;
10571;SDS011;5334;48.928;12.704;2023-05-15T11:48:17;16.03;;;15.37;;
10571;SDS011;5334;48.928;12.704;2023-05-15T11:50:44;14.33;;;13.73;;
10571;SDS011;5334;48.928;12.704;2023-05-15T11:53:10;15.60;;;14.97;;
10571;SDS011;5334;48.928;12.704;2023-05-15T11:55:37;14.50;;;13.90;;
10571;SDS011;5334;48.928;12.704;2023-05-15T11:58:04;17.27;;;16.57;;
10571;SDS011;5334;48.928;12.704;2023-05-15T12:00:34;15.93;;;15.27;;
10571;SDS011;5334;48.928;12.704;2023-05-15T12:03:00;13.73;;;13.13;;
10571;SDS011;5334;48.928;12.704;2023-05-15T12:05:27;17.47;;;16.77;;
10571;SDS011;5334;48.928;12.704;2023-05-15T12:07:54;17.10;;;16.40;;
10571;SDS011;5334;48.928;12.704;2023-05-15T12:10:21;17.00;;;16.30;;
10571;SDS011;5334;48.928;12.704;2023-05-15T12:12:47;16.43;;;15.73;;
10571;SDS011;5334;48.928;12.704;2023-05-15T12:15:14;17.03;;;16.33;;
10571;SDS011;5334;48.928;12.704;2023-05-15T12:17:41;18.43;;;17.63;;
10571;SDS011;5334;48.928;12.704;2023-05-15T12:20:09;20.37;;;19.47;;
10571;SDS011;5334;48.928;12.704;2023-05-15T12:22:39;15.20;;;14.60;;
10571;SDS011;5334;48.928;12.704;2023-05-15T12:25:09;17.20;;;16.47;;
10571;SDS011;5334;48.928;12.704;2023-05-15T12:27:36;23.80;;;22.77;;
10571;SDS011;5334;48.928;12.704;2023-05-15T12:30:05;16.47;;;15.77;;
10571;SDS011;5334;48.928;12.704;2023-05-15T12:32:33;12.40;;;11.90;;
10571;SDS011;5334;48.928;12.704;2023-05-15T12:35:00;12.87;;;12.37;;
10571;SDS011;5334;48.928;12.704;2023-05-15T12:37:27;15.07;;;14.43;;
10571;SDS011;5334;48.928;12.704;2023-05-15T12:39:56;17.77;;;17.07;;
10571;SDS011;5334;48.928;12.704;2023-05-15T12:42:25;17.00;;;16.30;;
10571;SDS011;5334;48.928;12.704;2023-05-15T12:44:51;20.53;;;19.70;;
10571;SDS011;5334;48.928;12.704;2023-05-15T12:47:22;17.70;;;16.93;;
10571;SDS011;5334;48.928;12.704;2023-05-15T12:49:55;16.37;;;15.63;;
10571;SDS011;5334;48.928;12.704;2023-05-15T12:52:21;19.93;;;19.03;;
10571;SDS011;5334;48.928;12.704;2023-05-15T12:54:47;14.30;;;13.70;;
10571;SDS011;5334;48.928;12.704;2023-05-15T12:57:13;12.13;;;11.63;;
10571;SDS011;5334;48.928;12.704;2023-05-15T12:59:39;14.73;;;14.13;;
10571;SDS011;5334;48.928;12.704;2023-05-15T13:02:08;16.97;;;16.27;;
10571;SDS011;5334;48.928;12.704;2023-05-15T13:04:36;13.97;;;13.37;;
10571;SDS011;5334;48.928;12.704;2023-05-15T13:07:02;14.90;;;14.30;;
10571;SDS011;5334;48.928;12.704;2023-05-15T13:09:28;12.90;;;12.40;;
10571;SDS011;5334;48.928;12.704;2023-05-15T13:11:54;15.00;;;14.40;;
10571;SDS011;5334;48.928;12.704;2023-05-15T13:14:20;15.77;;;15.17;;
10571;SDS011;5334;48.928;12.704;2023-05-15T13:16:51;17.83;;;17.13;;
10571;SDS011;5334;48.928;12.704;2023-05-15T13:19:17;14.40;;;13.80;;
10571;SDS011;5334;48.928;12.704;2023-05-15T13:21:43;18.33;;;17.57;;
10571;SDS011;5334;48.928;12.704;2023-05-15T13:24:09;18.07;;;17.33;;
10571;SDS011;5334;48.928;12.704;2023-05-15T13:26:35;14.10;;;13.50;;
10571;SDS011;5334;48.928;12.704;2023-05-15T13:29:01;12.83;;;12.33;;
10571;SDS011;5334;48.928;12.704;2023-05-15T13:31:26;14.43;;;13.83;;
10571;SDS011;5334;48.928;12.704;2023-05-15T13:33:52;13.90;;;13.30;;
10571;SDS011;5334;48.928;12.704;2023-05-15T13:36:18;12.80;;;12.30;;
10571;SDS011;5334;48.928;12.704;2023-05-15T13:38:44;11.97;;;11.47;;
10571;SDS011;5334;48.928;12.704;2023-05-15T13:41:09;16.13;;;15.33;;
10571;SDS011;5334;48.928;12.704;2023-05-15T13:43:35;14.43;;;13.83;;
10571;SDS011;5334;48.928;12.704;2023-05-15T13:46:01;12.97;;;12.47;;
10571;SDS011;5334;48.928;12.704;2023-05-15T13:48:26;11.43;;;10.93;;
10571;SDS011;5334;48.928;12.704;2023-05-15T13:50:52;16.13;;;15.43;;
10571;SDS011;5334;48.928;12.704;2023-05-15T13:53:18;15.53;;;14.87;;
10571;SDS011;5334;48.928;12.704;2023-05-15T13:55:44;16.47;;;15.77;;
10571;SDS011;5334;48.928;12.704;2023-05-15T13:58:10;14.63;;;14.03;;
10571;SDS011;5334;48.928;12.704;2023-05-15T14:00:37;16.73;;;16.03;;
10571;SDS011;5334;48.928;12.704;2023-05-15T14:03:03;12.53;;;12.03;;
10571;SDS011;5334;48.928;12.704;2023-05-15T14:05:30;15.40;;;14.80;;
10571;SDS011;5334;48.928;12.704;2023-05-15T14:07:56;14.10;;;13.50;;
10571;SDS011;5334;48.928;12.704;2023-05-15T14:10:22;14.93;;;14.33;;
10571;SDS011;5334;48.928;12.704;2023-05-15T14:12:50;12.03;;;11.53;;
10571;SDS011;5334;48.928;12.704;2023-05-15T14:15:16;12.27;;;11.77;;
10571;SDS011;5334;48.928;12.704;2023-05-15T14:17:42;12.20;;;11.70;;
10571;SDS011;5334;48.928;12.704;2023-05-15T14:20:08;12.30;;;11.80;;
10571;SDS011;5334;48.928;12.704;2023-05-15T14:22:35;13.17;;;12.67;;
10571;SDS011;5334;48.928;12.704;2023-05-15T14:25:02;12.77;;;12.27;;
10571;SDS011;5334;48.928;12.704;2023-05-15T14:27:28;15.27;;;14.63;;
10571;SDS011;5334;48.928;12.704;2023-05-15T14:29:54;14.10;;;13.50;;
10571;SDS011;5334;48.928;12.704;2023-05-15T14:32:22;13.23;;;12.73;;
10571;SDS011;5334;48.928;12.704;2023-05-15T14:34:48;15.13;;;14.53;;
10571;SDS011;5334;48.928;12.704;2023-05-15T14:37:14;14.43;;;13.83;;
10571;SDS011;5334;48.928;12.704;2023-05-15T14:39:40;13.63;;;13.10;;
10571;SDS011;5334;48.928;12.704;2023-05-15T14:42:06;14.90;;;14.30;;
10571;SDS011;5334;48.928;12.704;2023-05-15T14:44:35;12.93;;;12.43;;
10571;SDS011;5334;48.928;12.704;2023-05-15T14:47:07;15.13;;;14.53;;